sensor_id;sensor_type;location;lat;lon;timestamp;temperature;humidity
46652;DHT22;32377;52.182;5.398;2022-08-24T00:01:56;20.60;99.90
46652;DHT22;32377;52.182;5.398;2022-08-24T00:04:22;20.60;99.90
46652;DHT22;32377;52.182;5.398;2022-08-24T00:06:47;20.60;99.90
46652;DHT22;32377;52.182;5.398;2022-08-24T00:09:14;20.60;99.90
46652;DHT22;32377;52.182;5.398;2022-08-24T00:11:40;20.60;99.90
46652;DHT22;32377;52.182;5.398;2022-08-24T00:14:06;20.50;99.90
46652;DHT22;32377;52.182;5.398;2022-08-24T00:16:32;20.40;99.90
46652;DHT22;32377;52.182;5.398;2022-08-24T00:18:58;20.30;99.90
46652;DHT22;32377;52.182;5.398;2022-08-24T00:21:24;20.30;99.90
46652;DHT22;32377;52.182;5.398;2022-08-24T00:23:52;20.30;99.90
46652;DHT22;32377;52.182;5.398;2022-08-24T00:26:17;20.30;99.90
46652;DHT22;32377;52.182;5.398;2022-08-24T00:28:43;20.20;99.90
46652;DHT22;32377;52.182;5.398;2022-08-24T00:31:09;20.30;99.90
46652;DHT22;32377;52.182;5.398;2022-08-24T00:33:35;20.20;99.90
46652;DHT22;32377;52.182;5.398;2022-08-24T00:36:02;20.20;99.90
46652;DHT22;32377;52.182;5.398;2022-08-24T00:38:28;20.10;99.90
46652;DHT22;32377;52.182;5.398;2022-08-24T00:40:53;20.10;99.90
46652;DHT22;32377;52.182;5.398;2022-08-24T00:43:24;20.10;99.90
46652;DHT22;32377;52.182;5.398;2022-08-24T00:46:12;20.00;99.90
46652;DHT22;32377;52.182;5.398;2022-08-24T00:48:40;20.00;99.90
46652;DHT22;32377;52.182;5.398;2022-08-24T00:51:18;20.00;99.90
46652;DHT22;32377;52.182;5.398;2022-08-24T00:53:48;20.10;99.90
46652;DHT22;32377;52.182;5.398;2022-08-24T00:56:30;20.10;99.90
46652;DHT22;32377;52.182;5.398;2022-08-24T00:59:01;20.20;99.90
46652;DHT22;32377;52.182;5.398;2022-08-24T01:01:30;20.20;99.90
46652;DHT22;32377;52.182;5.398;2022-08-24T01:03:57;20.10;99.90
46652;DHT22;32377;52.182;5.398;2022-08-24T01:06:23;20.10;99.90
46652;DHT22;32377;52.182;5.398;2022-08-24T01:08:49;20.10;99.90
46652;DHT22;32377;52.182;5.398;2022-08-24T01:11:19;20.10;99.90
46652;DHT22;32377;52.182;5.398;2022-08-24T01:13:47;20.00;99.90
46652;DHT22;32377;52.182;5.398;2022-08-24T01:16:15;20.00;99.90
46652;DHT22;32377;52.182;5.398;2022-08-24T01:19:01;19.90;99.90
46652;DHT22;32377;52.182;5.398;2022-08-24T01:21:33;19.90;99.90
46652;DHT22;32377;52.182;5.398;2022-08-24T01:24:03;19.90;99.90
46652;DHT22;32377;52.182;5.398;2022-08-24T01:26:37;19.80;99.90
46652;DHT22;32377;52.182;5.398;2022-08-24T01:29:09;19.80;99.90
46652;DHT22;32377;52.182;5.398;2022-08-24T01:31:35;19.80;99.90
46652;DHT22;32377;52.182;5.398;2022-08-24T01:34:01;19.80;99.90
46652;DHT22;32377;52.182;5.398;2022-08-24T01:36:36;19.90;99.90
46652;DHT22;32377;52.182;5.398;2022-08-24T01:39:10;19.90;99.90
46652;DHT22;32377;52.182;5.398;2022-08-24T01:41:38;19.90;99.90
46652;DHT22;32377;52.182;5.398;2022-08-24T01:44:04;19.90;99.90
46652;DHT22;32377;52.182;5.398;2022-08-24T01:46:30;19.90;99.90
46652;DHT22;32377;52.182;5.398;2022-08-24T01:48:56;19.80;99.90
46652;DHT22;32377;52.182;5.398;2022-08-24T01:51:23;19.80;99.90
46652;DHT22;32377;52.182;5.398;2022-08-24T01:53:48;19.80;99.90
46652;DHT22;32377;52.182;5.398;2022-08-24T01:56:14;19.70;99.90
46652;DHT22;32377;52.182;5.398;2022-08-24T01:58:47;19.80;99.90
46652;DHT22;32377;52.182;5.398;2022-08-24T02:01:14;19.80;99.90
46652;DHT22;32377;52.182;5.398;2022-08-24T02:03:42;19.70;99.90
46652;DHT22;32377;52.182;5.398;2022-08-24T02:06:08;19.70;99.90
46652;DHT22;32377;52.182;5.398;2022-08-24T02:08:33;19.70;99.90
46652;DHT22;32377;52.182;5.398;2022-08-24T02:11:04;19.70;99.90
46652;DHT22;32377;52.182;5.398;2022-08-24T02:13:30;19.70;99.90
46652;DHT22;32377;52.182;5.398;2022-08-24T02:15:56;19.70;99.90
46652;DHT22;32377;52.182;5.398;2022-08-24T02:18:22;19.70;99.90
46652;DHT22;32377;52.182;5.398;2022-08-24T02:20:48;19.60;99.90
46652;DHT22;32377;52.182;5.398;2022-08-24T02:23:14;19.60;99.90
46652;DHT22;32377;52.182;5.398;2022-08-24T02:25:40;19.50;99.90
46652;DHT22;32377;52.182;5.398;2022-08-24T02:28:05;19.50;99.90
46652;DHT22;32377;52.182;5.398;2022-08-24T02:30:31;19.50;99.90
46652;DHT22;32377;52.182;5.398;2022-08-24T02:32:57;19.50;99.90
46652;DHT22;32377;52.182;5.398;2022-08-24T02:35:24;19.50;99.90
46652;DHT22;32377;52.182;5.398;2022-08-24T02:37:49;19.50;99.90
46652;DHT22;32377;52.182;5.398;2022-08-24T02:40:16;19.50;99.90
46652;DHT22;32377;52.182;5.398;2022-08-24T02:42:42;19.50;99.90
46652;DHT22;32377;52.182;5.398;2022-08-24T02:45:08;19.40;99.90
46652;DHT22;32377;52.182;5.398;2022-08-24T02:47:34;19.50;99.90
46652;DHT22;32377;52.182;5.398;2022-08-24T02:50:02;19.40;99.90
46652;DHT22;32377;52.182;5.398;2022-08-24T02:52:27;19.40;99.90
46652;DHT22;32377;52.182;5.398;2022-08-24T02:54:53;19.50;99.90
46652;DHT22;32377;52.182;5.398;2022-08-24T02:57:19;19.40;99.90
46652;DHT22;32377;52.182;5.398;2022-08-24T02:59:44;19.50;99.90
46652;DHT22;32377;52.182;5.398;2022-08-24T03:02:10;19.50;99.90
46652;DHT22;32377;52.182;5.398;2022-08-24T03:04:36;19.50;99.90
46652;DHT22;32377;52.182;5.398;2022-08-24T03:07:01;19.50;99.90
46652;DHT22;32377;52.182;5.398;2022-08-24T03:09:27;19.50;99.90
46652;DHT22;32377;52.182;5.398;2022-08-24T03:11:53;19.40;99.90
46652;DHT22;32377;52.182;5.398;2022-08-24T03:14:18;19.40;99.90
46652;DHT22;32377;52.182;5.398;2022-08-24T03:16:44;19.30;99.90
46652;DHT22;32377;52.182;5.398;2022-08-24T03:19:11;19.40;99.90
46652;DHT22;32377;52.182;5.398;2022-08-24T03:21:37;19.30;99.90
46652;DHT22;32377;52.182;5.398;2022-08-24T03:24:02;19.30;99.90
46652;DHT22;32377;52.182;5.398;2022-08-24T03:26:28;19.30;99.90
46652;DHT22;32377;52.182;5.398;2022-08-24T03:28:53;19.30;99.90
46652;DHT22;32377;52.182;5.398;2022-08-24T03:31:19;19.20;99.90
46652;DHT22;32377;52.182;5.398;2022-08-24T03:33:45;19.30;99.90
46652;DHT22;32377;52.182;5.398;2022-08-24T03:36:11;19.30;99.90
46652;DHT22;32377;52.182;5.398;2022-08-24T03:38:36;19.20;99.90
46652;DHT22;32377;52.182;5.398;2022-08-24T03:41:02;19.10;99.90
46652;DHT22;32377;52.182;5.398;2022-08-24T03:43:28;19.10;99.90
46652;DHT22;32377;52.182;5.398;2022-08-24T03:46:24;19.10;99.90
46652;DHT22;32377;52.182;5.398;2022-08-24T03:48:54;19.00;99.90
46652;DHT22;32377;52.182;5.398;2022-08-24T03:51:22;19.00;99.90
46652;DHT22;32377;52.182;5.398;2022-08-24T03:53:48;19.00;99.90
46652;DHT22;32377;52.182;5.398;2022-08-24T03:56:15;19.00;99.90
46652;DHT22;32377;52.182;5.398;2022-08-24T03:58:41;19.00;99.90
46652;DHT22;32377;52.182;5.398;2022-08-24T04:01:08;19.00;99.90
46652;DHT22;32377;52.182;5.398;2022-08-24T04:03:38;19.00;99.90
46652;DHT22;32377;52.182;5.398;2022-08-24T04:06:05;18.90;99.90
46652;DHT22;32377;52.182;5.398;2022-08-24T04:08:31;19.00;99.90
46652;DHT22;32377;52.182;5.398;2022-08-24T04:10:57;18.90;99.90
46652;DHT22;32377;52.182;5.398;2022-08-24T04:13:23;18.90;99.90
46652;DHT22;32377;52.182;5.398;2022-08-24T04:15:49;18.90;99.90
46652;DHT22;32377;52.182;5.398;2022-08-24T04:18:17;18.80;99.90
46652;DHT22;32377;52.182;5.398;2022-08-24T04:20:43;18.80;99.90
46652;DHT22;32377;52.182;5.398;2022-08-24T04:23:10;18.80;99.90
46652;DHT22;32377;52.182;5.398;2022-08-24T04:25:53;18.80;99.90
46652;DHT22;32377;52.182;5.398;2022-08-24T04:28:20;18.80;99.90
46652;DHT22;32377;52.182;5.398;2022-08-24T04:30:48;18.80;99.90
46652;DHT22;32377;52.182;5.398;2022-08-24T04:33:16;18.80;99.90
46652;DHT22;32377;52.182;5.398;2022-08-24T04:35:43;18.80;99.90
46652;DHT22;32377;52.182;5.398;2022-08-24T04:38:10;18.80;99.90
46652;DHT22;32377;52.182;5.398;2022-08-24T04:40:41;18.70;99.90
46652;DHT22;32377;52.182;5.398;2022-08-24T04:43:07;18.80;99.90
46652;DHT22;32377;52.182;5.398;2022-08-24T04:45:37;18.80;99.90
46652;DHT22;32377;52.182;5.398;2022-08-24T04:48:03;18.70;99.90
46652;DHT22;32377;52.182;5.398;2022-08-24T04:50:29;18.70;99.90
46652;DHT22;32377;52.182;5.398;2022-08-24T04:52:54;18.80;99.90
46652;DHT22;32377;52.182;5.398;2022-08-24T04:55:20;18.80;99.90
46652;DHT22;32377;52.182;5.398;2022-08-24T04:57:45;18.80;99.90
46652;DHT22;32377;52.182;5.398;2022-08-24T05:00:11;18.80;99.90
46652;DHT22;32377;52.182;5.398;2022-08-24T05:02:37;18.80;99.90
46652;DHT22;32377;52.182;5.398;2022-08-24T05:05:06;18.80;99.90
46652;DHT22;32377;52.182;5.398;2022-08-24T05:07:32;18.80;99.90
46652;DHT22;32377;52.182;5.398;2022-08-24T05:09:57;18.80;99.90
46652;DHT22;32377;52.182;5.398;2022-08-24T05:12:23;18.80;99.90
46652;DHT22;32377;52.182;5.398;2022-08-24T05:14:49;18.80;99.90
46652;DHT22;32377;52.182;5.398;2022-08-24T05:17:14;18.80;99.90
46652;DHT22;32377;52.182;5.398;2022-08-24T05:19:40;18.90;99.90
46652;DHT22;32377;52.182;5.398;2022-08-24T05:22:05;19.00;99.90
46652;DHT22;32377;52.182;5.398;2022-08-24T05:24:31;19.00;99.90
46652;DHT22;32377;52.182;5.398;2022-08-24T05:26:56;19.00;99.90
46652;DHT22;32377;52.182;5.398;2022-08-24T05:29:24;19.10;99.90
46652;DHT22;32377;52.182;5.398;2022-08-24T05:31:50;19.10;99.90
46652;DHT22;32377;52.182;5.398;2022-08-24T05:34:16;19.30;99.90
46652;DHT22;32377;52.182;5.398;2022-08-24T05:36:43;19.30;99.90
46652;DHT22;32377;52.182;5.398;2022-08-24T05:39:11;19.40;99.90
46652;DHT22;32377;52.182;5.398;2022-08-24T05:41:39;19.50;99.90
46652;DHT22;32377;52.182;5.398;2022-08-24T05:44:06;19.50;99.90
46652;DHT22;32377;52.182;5.398;2022-08-24T05:46:31;19.60;99.90
46652;DHT22;32377;52.182;5.398;2022-08-24T05:48:58;19.70;99.90
46652;DHT22;32377;52.182;5.398;2022-08-24T05:51:24;19.80;99.90
46652;DHT22;32377;52.182;5.398;2022-08-24T05:53:50;20.00;99.90
46652;DHT22;32377;52.182;5.398;2022-08-24T05:56:17;20.10;99.90
46652;DHT22;32377;52.182;5.398;2022-08-24T05:58:44;20.10;99.90
46652;DHT22;32377;52.182;5.398;2022-08-24T06:01:13;20.20;99.90
46652;DHT22;32377;52.182;5.398;2022-08-24T06:03:40;20.30;99.90
46652;DHT22;32377;52.182;5.398;2022-08-24T06:06:06;20.30;99.90
46652;DHT22;32377;52.182;5.398;2022-08-24T06:08:37;20.40;99.90
46652;DHT22;32377;52.182;5.398;2022-08-24T06:11:03;20.60;99.90
46652;DHT22;32377;52.182;5.398;2022-08-24T06:13:29;20.70;99.90
46652;DHT22;32377;52.182;5.398;2022-08-24T06:16:03;20.80;99.90
46652;DHT22;32377;52.182;5.398;2022-08-24T06:18:28;20.80;99.90
46652;DHT22;32377;52.182;5.398;2022-08-24T06:20:54;20.80;99.90
46652;DHT22;32377;52.182;5.398;2022-08-24T06:23:19;20.90;99.90
46652;DHT22;32377;52.182;5.398;2022-08-24T06:25:45;21.00;99.90
46652;DHT22;32377;52.182;5.398;2022-08-24T06:28:29;21.20;99.90
46652;DHT22;32377;52.182;5.398;2022-08-24T06:31:04;21.20;99.90
46652;DHT22;32377;52.182;5.398;2022-08-24T06:33:31;21.40;99.90
46652;DHT22;32377;52.182;5.398;2022-08-24T06:35:57;21.50;99.90
46652;DHT22;32377;52.182;5.398;2022-08-24T06:38:23;21.50;99.90
46652;DHT22;32377;52.182;5.398;2022-08-24T06:40:48;21.60;99.90
46652;DHT22;32377;52.182;5.398;2022-08-24T06:43:14;21.80;99.90
46652;DHT22;32377;52.182;5.398;2022-08-24T06:45:43;21.80;99.90
46652;DHT22;32377;52.182;5.398;2022-08-24T06:48:09;21.90;99.90
46652;DHT22;32377;52.182;5.398;2022-08-24T06:50:35;21.90;99.90
46652;DHT22;32377;52.182;5.398;2022-08-24T06:53:02;22.00;99.90
46652;DHT22;32377;52.182;5.398;2022-08-24T06:55:28;22.10;99.90
46652;DHT22;32377;52.182;5.398;2022-08-24T06:57:54;22.20;99.90
46652;DHT22;32377;52.182;5.398;2022-08-24T07:00:20;22.30;99.90
46652;DHT22;32377;52.182;5.398;2022-08-24T07:02:46;22.40;99.90
46652;DHT22;32377;52.182;5.398;2022-08-24T07:05:12;22.60;99.90
46652;DHT22;32377;52.182;5.398;2022-08-24T07:07:38;22.60;99.90
46652;DHT22;32377;52.182;5.398;2022-08-24T07:10:05;22.70;99.90
46652;DHT22;32377;52.182;5.398;2022-08-24T07:12:33;22.80;99.90
46652;DHT22;32377;52.182;5.398;2022-08-24T07:14:58;22.90;99.90
46652;DHT22;32377;52.182;5.398;2022-08-24T07:17:24;23.00;99.90
46652;DHT22;32377;52.182;5.398;2022-08-24T07:19:49;23.20;99.90
46652;DHT22;32377;52.182;5.398;2022-08-24T07:22:15;23.20;99.90
46652;DHT22;32377;52.182;5.398;2022-08-24T07:24:41;23.30;99.90
46652;DHT22;32377;52.182;5.398;2022-08-24T07:27:06;23.40;99.90
46652;DHT22;32377;52.182;5.398;2022-08-24T07:29:32;23.40;99.90
46652;DHT22;32377;52.182;5.398;2022-08-24T07:31:57;23.50;99.90
46652;DHT22;32377;52.182;5.398;2022-08-24T07:34:23;23.60;99.90
46652;DHT22;32377;52.182;5.398;2022-08-24T07:36:49;23.70;99.90
46652;DHT22;32377;52.182;5.398;2022-08-24T07:39:16;23.70;99.90
46652;DHT22;32377;52.182;5.398;2022-08-24T07:41:43;23.80;99.90
46652;DHT22;32377;52.182;5.398;2022-08-24T07:44:10;23.90;99.90
46652;DHT22;32377;52.182;5.398;2022-08-24T07:46:38;23.90;99.90
46652;DHT22;32377;52.182;5.398;2022-08-24T07:49:05;24.00;99.90
46652;DHT22;32377;52.182;5.398;2022-08-24T07:51:32;24.10;99.90
46652;DHT22;32377;52.182;5.398;2022-08-24T07:53:57;24.10;99.90
46652;DHT22;32377;52.182;5.398;2022-08-24T07:56:23;24.20;99.90
46652;DHT22;32377;52.182;5.398;2022-08-24T07:58:49;24.20;99.90
46652;DHT22;32377;52.182;5.398;2022-08-24T08:01:14;24.30;99.90
46652;DHT22;32377;52.182;5.398;2022-08-24T08:03:40;24.40;99.90
46652;DHT22;32377;52.182;5.398;2022-08-24T08:06:08;24.40;99.90
46652;DHT22;32377;52.182;5.398;2022-08-24T08:08:35;24.50;99.90
46652;DHT22;32377;52.182;5.398;2022-08-24T08:11:02;24.50;99.90
46652;DHT22;32377;52.182;5.398;2022-08-24T08:13:29;24.60;99.90
46652;DHT22;32377;52.182;5.398;2022-08-24T08:15:56;24.70;99.90
46652;DHT22;32377;52.182;5.398;2022-08-24T08:18:22;24.70;99.90
46652;DHT22;32377;52.182;5.398;2022-08-24T08:20:47;24.90;99.90
46652;DHT22;32377;52.182;5.398;2022-08-24T08:23:14;24.90;99.90
46652;DHT22;32377;52.182;5.398;2022-08-24T08:25:58;24.80;99.90
46652;DHT22;32377;52.182;5.398;2022-08-24T08:28:26;24.80;99.90
46652;DHT22;32377;52.182;5.398;2022-08-24T08:31:00;25.00;99.90
46652;DHT22;32377;52.182;5.398;2022-08-24T08:33:26;25.00;99.90
46652;DHT22;32377;52.182;5.398;2022-08-24T08:36:02;25.20;99.90
46652;DHT22;32377;52.182;5.398;2022-08-24T08:38:28;25.30;99.90
46652;DHT22;32377;52.182;5.398;2022-08-24T09:00:18;25.70;99.90
46652;DHT22;32377;52.182;5.398;2022-08-24T09:20:30;26.10;99.90
46652;DHT22;32377;52.182;5.398;2022-08-24T09:23:22;26.10;99.90
46652;DHT22;32377;52.182;5.398;2022-08-24T09:26:16;26.20;99.90
46652;DHT22;32377;52.182;5.398;2022-08-24T09:34:15;26.40;99.90
46652;DHT22;32377;52.182;5.398;2022-08-24T09:36:54;26.40;99.90
46652;DHT22;32377;52.182;5.398;2022-08-24T09:39:51;26.30;99.90
46652;DHT22;32377;52.182;5.398;2022-08-24T09:42:29;26.40;99.90
46652;DHT22;32377;52.182;5.398;2022-08-24T09:45:09;26.30;99.90
46652;DHT22;32377;52.182;5.398;2022-08-24T09:48:07;26.40;99.90
46652;DHT22;32377;52.182;5.398;2022-08-24T09:50:51;26.60;99.90
46652;DHT22;32377;52.182;5.398;2022-08-24T09:59:44;26.90;99.90
46652;DHT22;32377;52.182;5.398;2022-08-24T10:02:31;27.00;99.90
46652;DHT22;32377;52.182;5.398;2022-08-24T10:16:16;27.50;99.90
46652;DHT22;32377;52.182;5.398;2022-08-24T10:18:59;27.50;99.90
46652;DHT22;32377;52.182;5.398;2022-08-24T10:22:01;27.40;99.90
46652;DHT22;32377;52.182;5.398;2022-08-24T10:24:39;27.30;99.90
46652;DHT22;32377;52.182;5.398;2022-08-24T10:27:44;27.50;99.90
46652;DHT22;32377;52.182;5.398;2022-08-24T10:33:03;27.70;99.90
46652;DHT22;32377;52.182;5.398;2022-08-24T10:38:38;27.80;99.90
46652;DHT22;32377;52.182;5.398;2022-08-24T10:44:42;27.80;99.90
46652;DHT22;32377;52.182;5.398;2022-08-24T10:50:02;27.90;99.90
46652;DHT22;32377;52.182;5.398;2022-08-24T10:53:01;27.90;99.90
46652;DHT22;32377;52.182;5.398;2022-08-24T10:55:31;28.20;99.90
46652;DHT22;32377;52.182;5.398;2022-08-24T11:00:42;28.10;99.90
46652;DHT22;32377;52.182;5.398;2022-08-24T11:03:10;28.30;99.90
46652;DHT22;32377;52.182;5.398;2022-08-24T11:05:46;28.40;99.90
46652;DHT22;32377;52.182;5.398;2022-08-24T11:08:27;28.50;99.90
46652;DHT22;32377;52.182;5.398;2022-08-24T11:11:07;28.50;99.90
46652;DHT22;32377;52.182;5.398;2022-08-24T11:13:34;28.40;99.90
46652;DHT22;32377;52.182;5.398;2022-08-24T11:16:03;28.30;99.90
46652;DHT22;32377;52.182;5.398;2022-08-24T11:18:48;28.30;99.90
46652;DHT22;32377;52.182;5.398;2022-08-24T11:21:31;28.40;99.90
46652;DHT22;32377;52.182;5.398;2022-08-24T11:26:50;28.70;99.90
46652;DHT22;32377;52.182;5.398;2022-08-24T11:29:16;28.80;99.90
46652;DHT22;32377;52.182;5.398;2022-08-24T11:31:43;28.90;99.90
46652;DHT22;32377;52.182;5.398;2022-08-24T11:34:17;28.80;99.90
46652;DHT22;32377;52.182;5.398;2022-08-24T11:36:44;28.90;99.90
46652;DHT22;32377;52.182;5.398;2022-08-24T11:39:20;29.00;99.90
46652;DHT22;32377;52.182;5.398;2022-08-24T11:41:57;29.20;99.90
46652;DHT22;32377;52.182;5.398;2022-08-24T11:44:39;29.20;99.90
46652;DHT22;32377;52.182;5.398;2022-08-24T11:50:16;29.20;99.90
46652;DHT22;32377;52.182;5.398;2022-08-24T11:52:51;29.10;99.90
46652;DHT22;32377;52.182;5.398;2022-08-24T11:56:06;28.90;99.90
46652;DHT22;32377;52.182;5.398;2022-08-24T11:58:39;28.90;99.90
46652;DHT22;32377;52.182;5.398;2022-08-24T12:01:15;29.10;99.90
46652;DHT22;32377;52.182;5.398;2022-08-24T12:06:52;29.20;99.90
46652;DHT22;32377;52.182;5.398;2022-08-24T12:09:43;29.30;99.90
46652;DHT22;32377;52.182;5.398;2022-08-24T12:17:45;29.00;99.90
46652;DHT22;32377;52.182;5.398;2022-08-24T12:23:18;28.70;99.90
46652;DHT22;32377;52.182;5.398;2022-08-24T12:25:48;28.60;99.90
46652;DHT22;32377;52.182;5.398;2022-08-24T12:29:05;28.70;99.90
46652;DHT22;32377;52.182;5.398;2022-08-24T12:31:39;28.70;99.90
46652;DHT22;32377;52.182;5.398;2022-08-24T12:34:29;28.80;99.90
46652;DHT22;32377;52.182;5.398;2022-08-24T12:37:05;28.80;99.90
46652;DHT22;32377;52.182;5.398;2022-08-24T12:39:44;28.70;99.90
46652;DHT22;32377;52.182;5.398;2022-08-24T12:42:32;28.60;99.90
46652;DHT22;32377;52.182;5.398;2022-08-24T12:45:21;28.60;99.90
46652;DHT22;32377;52.182;5.398;2022-08-24T12:47:59;28.60;99.90
46652;DHT22;32377;52.182;5.398;2022-08-24T12:51:01;28.50;99.90
46652;DHT22;32377;52.182;5.398;2022-08-24T12:53:40;28.50;99.90
46652;DHT22;32377;52.182;5.398;2022-08-24T12:59:17;28.60;99.90
46652;DHT22;32377;52.182;5.398;2022-08-24T13:01:50;28.60;99.90
46652;DHT22;32377;52.182;5.398;2022-08-24T13:07:08;29.00;99.90
46652;DHT22;32377;52.182;5.398;2022-08-24T13:09:42;29.30;99.90
46652;DHT22;32377;52.182;5.398;2022-08-24T13:15:24;29.90;99.90
46652;DHT22;32377;52.182;5.398;2022-08-24T13:18:00;30.20;99.90
46652;DHT22;32377;52.182;5.398;2022-08-24T13:36:04;30.10;99.90
46652;DHT22;32377;52.182;5.398;2022-08-24T13:41:11;30.00;99.90
46652;DHT22;32377;52.182;5.398;2022-08-24T13:46:47;29.90;99.90
46652;DHT22;32377;52.182;5.398;2022-08-24T13:50:09;29.90;99.90
46652;DHT22;32377;52.182;5.398;2022-08-24T13:55:49;29.90;99.90
46652;DHT22;32377;52.182;5.398;2022-08-24T14:01:17;29.90;99.90
46652;DHT22;32377;52.182;5.398;2022-08-24T14:06:23;30.00;99.90
46652;DHT22;32377;52.182;5.398;2022-08-24T14:09:15;29.90;99.70
46652;DHT22;32377;52.182;5.398;2022-08-24T14:15:02;29.80;99.70
46652;DHT22;32377;52.182;5.398;2022-08-24T14:23:45;30.00;99.90
46652;DHT22;32377;52.182;5.398;2022-08-24T14:31:41;30.00;99.70
46652;DHT22;32377;52.182;5.398;2022-08-24T14:40:31;30.20;98.70
46652;DHT22;32377;52.182;5.398;2022-08-24T14:45:52;30.30;99.60
46652;DHT22;32377;52.182;5.398;2022-08-24T14:48:31;30.30;99.50
46652;DHT22;32377;52.182;5.398;2022-08-24T15:08:03;30.10;99.90
46652;DHT22;32377;52.182;5.398;2022-08-24T15:11:06;30.00;99.70
46652;DHT22;32377;52.182;5.398;2022-08-24T15:16:23;29.90;99.90
46652;DHT22;32377;52.182;5.398;2022-08-24T15:19:05;29.90;99.50
46652;DHT22;32377;52.182;5.398;2022-08-24T15:24:35;30.00;99.80
46652;DHT22;32377;52.182;5.398;2022-08-24T15:27:20;30.10;99.60
46652;DHT22;32377;52.182;5.398;2022-08-24T15:29:57;29.90;99.30
46652;DHT22;32377;52.182;5.398;2022-08-24T15:32:26;29.90;99.80
46652;DHT22;32377;52.182;5.398;2022-08-24T15:35:03;29.90;99.90
46652;DHT22;32377;52.182;5.398;2022-08-24T15:37:35;29.80;99.90
46652;DHT22;32377;52.182;5.398;2022-08-24T15:40:14;29.80;99.90
46652;DHT22;32377;52.182;5.398;2022-08-24T15:42:40;29.80;99.90
46652;DHT22;32377;52.182;5.398;2022-08-24T15:45:06;29.80;99.90
46652;DHT22;32377;52.182;5.398;2022-08-24T15:47:35;29.80;99.90
46652;DHT22;32377;52.182;5.398;2022-08-24T15:50:19;29.70;99.90
46652;DHT22;32377;52.182;5.398;2022-08-24T15:53:06;29.70;99.90
46652;DHT22;32377;52.182;5.398;2022-08-24T15:55:39;29.60;99.90
46652;DHT22;32377;52.182;5.398;2022-08-24T15:58:29;29.50;99.90
46652;DHT22;32377;52.182;5.398;2022-08-24T16:03:48;29.60;99.90
46652;DHT22;32377;52.182;5.398;2022-08-24T16:09:03;29.50;99.90
46652;DHT22;32377;52.182;5.398;2022-08-24T16:11:57;29.50;99.90
46652;DHT22;32377;52.182;5.398;2022-08-24T16:14:32;29.60;99.90
46652;DHT22;32377;52.182;5.398;2022-08-24T16:17:00;29.60;99.90
46652;DHT22;32377;52.182;5.398;2022-08-24T16:19:52;29.50;99.90
46652;DHT22;32377;52.182;5.398;2022-08-24T16:30:43;29.00;99.90
46652;DHT22;32377;52.182;5.398;2022-08-24T16:33:10;29.00;99.90
46652;DHT22;32377;52.182;5.398;2022-08-24T16:35:37;29.00;99.90
46652;DHT22;32377;52.182;5.398;2022-08-24T16:38:03;29.00;99.90
46652;DHT22;32377;52.182;5.398;2022-08-24T16:40:29;28.90;99.90
46652;DHT22;32377;52.182;5.398;2022-08-24T16:42:57;28.90;99.90
46652;DHT22;32377;52.182;5.398;2022-08-24T16:45:23;28.90;99.90
46652;DHT22;32377;52.182;5.398;2022-08-24T16:47:49;28.70;99.90
46652;DHT22;32377;52.182;5.398;2022-08-24T16:50:17;28.80;99.90
46652;DHT22;32377;52.182;5.398;2022-08-24T16:52:43;28.80;99.90
46652;DHT22;32377;52.182;5.398;2022-08-24T16:55:10;28.70;99.90
46652;DHT22;32377;52.182;5.398;2022-08-24T16:57:36;28.70;99.90
46652;DHT22;32377;52.182;5.398;2022-08-24T17:00:05;28.70;99.90
46652;DHT22;32377;52.182;5.398;2022-08-24T17:02:32;28.70;99.90
46652;DHT22;32377;52.182;5.398;2022-08-24T17:04:57;28.60;99.90
46652;DHT22;32377;52.182;5.398;2022-08-24T17:07:25;28.50;99.90
46652;DHT22;32377;52.182;5.398;2022-08-24T17:09:53;28.50;99.90
46652;DHT22;32377;52.182;5.398;2022-08-24T17:12:20;28.50;99.90
46652;DHT22;32377;52.182;5.398;2022-08-24T17:14:46;28.40;99.90
46652;DHT22;32377;52.182;5.398;2022-08-24T17:17:13;28.40;99.90
46652;DHT22;32377;52.182;5.398;2022-08-24T17:19:39;28.30;99.90
46652;DHT22;32377;52.182;5.398;2022-08-24T17:22:05;28.20;99.90
46652;DHT22;32377;52.182;5.398;2022-08-24T17:24:33;28.30;99.90
46652;DHT22;32377;52.182;5.398;2022-08-24T17:26:59;28.30;99.90
46652;DHT22;32377;52.182;5.398;2022-08-24T17:29:25;28.20;99.90
46652;DHT22;32377;52.182;5.398;2022-08-24T17:31:51;28.20;99.90
46652;DHT22;32377;52.182;5.398;2022-08-24T17:34:18;28.20;99.90
46652;DHT22;32377;52.182;5.398;2022-08-24T17:36:49;28.10;99.90
46652;DHT22;32377;52.182;5.398;2022-08-24T17:39:16;28.00;99.90
46652;DHT22;32377;52.182;5.398;2022-08-24T17:41:42;28.00;99.90
46652;DHT22;32377;52.182;5.398;2022-08-24T17:44:10;27.90;99.90
46652;DHT22;32377;52.182;5.398;2022-08-24T17:46:38;27.90;99.90
46652;DHT22;32377;52.182;5.398;2022-08-24T17:49:06;27.80;99.90
46652;DHT22;32377;52.182;5.398;2022-08-24T17:51:32;27.80;99.90
46652;DHT22;32377;52.182;5.398;2022-08-24T17:53:58;27.70;99.90
46652;DHT22;32377;52.182;5.398;2022-08-24T17:56:26;27.70;99.90
46652;DHT22;32377;52.182;5.398;2022-08-24T17:58:54;27.60;99.90
46652;DHT22;32377;52.182;5.398;2022-08-24T18:01:38;27.50;99.90
46652;DHT22;32377;52.182;5.398;2022-08-24T18:04:03;27.30;99.90
46652;DHT22;32377;52.182;5.398;2022-08-24T18:06:30;27.20;99.90
46652;DHT22;32377;52.182;5.398;2022-08-24T18:08:59;27.20;99.90
46652;DHT22;32377;52.182;5.398;2022-08-24T18:11:27;27.10;99.90
46652;DHT22;32377;52.182;5.398;2022-08-24T18:13:52;26.90;99.90
46652;DHT22;32377;52.182;5.398;2022-08-24T18:16:20;26.80;99.90
46652;DHT22;32377;52.182;5.398;2022-08-24T18:18:49;26.70;99.90
46652;DHT22;32377;52.182;5.398;2022-08-24T18:21:16;26.60;99.90
46652;DHT22;32377;52.182;5.398;2022-08-24T18:23:41;26.50;99.90
46652;DHT22;32377;52.182;5.398;2022-08-24T18:26:08;26.50;99.90
46652;DHT22;32377;52.182;5.398;2022-08-24T18:28:35;26.40;99.90
46652;DHT22;32377;52.182;5.398;2022-08-24T18:31:01;26.30;99.90
46652;DHT22;32377;52.182;5.398;2022-08-24T18:33:27;26.30;99.90
46652;DHT22;32377;52.182;5.398;2022-08-24T18:35:52;26.20;99.90
46652;DHT22;32377;52.182;5.398;2022-08-24T18:38:18;26.20;99.90
46652;DHT22;32377;52.182;5.398;2022-08-24T18:40:43;26.10;99.90
46652;DHT22;32377;52.182;5.398;2022-08-24T18:43:11;26.10;99.90
46652;DHT22;32377;52.182;5.398;2022-08-24T18:45:39;25.90;99.90
46652;DHT22;32377;52.182;5.398;2022-08-24T18:48:04;25.80;99.90
46652;DHT22;32377;52.182;5.398;2022-08-24T18:50:30;25.80;99.90
46652;DHT22;32377;52.182;5.398;2022-08-24T18:52:57;25.70;99.90
46652;DHT22;32377;52.182;5.398;2022-08-24T18:55:24;25.70;99.90
46652;DHT22;32377;52.182;5.398;2022-08-24T18:57:50;25.60;99.90
46652;DHT22;32377;52.182;5.398;2022-08-24T19:00:16;25.60;99.90
46652;DHT22;32377;52.182;5.398;2022-08-24T19:02:42;25.50;99.90